createdAt,value
2022-11-28T08:12:09.992Z,0
2022-11-28T08:13:10.154Z,2259.2
2022-11-28T08:14:10.302Z,2259.2
2022-11-28T08:15:10.453Z,2259.2
2022-11-28T08:16:10.633Z,2259.2
2022-11-28T08:17:10.998Z,2259.2
2022-11-28T08:18:11.152Z,2259.2
2022-11-28T08:19:11.302Z,2259.2
2022-11-28T08:20:11.482Z,2259.2
2022-11-28T08:21:11.669Z,2259.2
2022-11-28T08:22:11.867Z,2099.2
2022-11-28T08:23:12.052Z,2099.2
2022-11-28T08:24:12.210Z,2099.2
2022-11-28T08:25:12.369Z,2099.2
2022-11-28T08:26:12.526Z,2099.2
2022-11-28T08:27:12.684Z,2099.2
2022-11-28T08:28:12.839Z,2099.2
2022-11-28T08:29:13.011Z,2099.2
2022-11-28T08:30:13.172Z,2099.2
2022-11-28T08:31:13.349Z,2099.2
2022-11-28T08:32:13.837Z,2080
2022-11-28T08:33:14.002Z,2080
2022-11-28T08:34:14.170Z,2080
2022-11-28T08:35:14.326Z,2080
2022-11-28T08:36:14.477Z,2080
2022-11-28T08:37:14.635Z,2080
2022-11-28T08:38:14.788Z,2080
2022-11-28T08:39:30.295Z,2080
2022-11-28T08:40:30.454Z,1999.36
2022-11-28T08:41:30.608Z,1999.36
2022-11-28T08:42:30.756Z,1978.88
2022-11-28T08:43:30.923Z,1978.88
2022-11-28T08:44:31.081Z,1978.88
2022-11-28T08:45:31.304Z,1978.88
2022-11-28T08:46:31.667Z,1978.88
2022-11-28T08:47:31.825Z,1978.88
2022-11-28T08:48:31.978Z,1978.88
2022-11-28T08:49:32.132Z,1978.88
2022-11-28T08:50:32.288Z,1978.88
2022-11-28T08:51:32.447Z,1978.88
2022-11-28T08:52:32.613Z,2099.2
2022-11-28T08:53:32.771Z,2099.2
2022-11-28T08:54:32.915Z,2099.2
2022-11-28T08:55:35.557Z,2099.2
2022-11-28T08:56:42.133Z,2080
2022-11-28T08:57:42.306Z,2080
2022-11-28T08:58:42.457Z,2080
2022-11-28T08:59:43.026Z,2080
2022-11-28T09:00:44.087Z,2080
2022-11-28T09:01:44.320Z,2080
2022-11-28T09:02:44.819Z,2199.04
2022-11-28T09:03:45.050Z,2199.04
2022-11-28T09:04:45.346Z,2199.04
2022-11-28T09:05:45.501Z,2199.04
2022-11-28T09:06:45.665Z,2199.04
2022-11-28T09:07:45.827Z,2199.04
2022-11-28T09:08:46.095Z,2199.04
2022-11-28T09:09:46.477Z,2199.04
2022-11-28T09:10:47.186Z,2199.04
2022-11-28T09:11:47.339Z,2199.04
2022-11-28T09:12:47.487Z,2279.68
2022-11-28T09:13:47.646Z,2279.68
2022-11-28T09:14:47.801Z,2279.68
2022-11-28T09:15:51.202Z,2279.68
2022-11-28T09:16:54.060Z,2240
2022-11-28T09:17:54.489Z,2240
2022-11-28T09:18:54.722Z,2240
2022-11-28T09:19:55.091Z,2240
2022-11-28T09:20:55.248Z,2240
2022-11-28T09:21:57.805Z,2199.04
2022-11-28T09:22:58.335Z,2199.04
2022-11-28T09:23:58.499Z,2199.04
2022-11-28T09:24:58.655Z,2199.04
2022-11-28T09:25:58.808Z,2199.04
2022-11-28T09:26:58.957Z,2199.04
2022-11-28T09:27:59.114Z,2199.04
2022-11-28T09:28:59.260Z,2199.04
2022-11-28T09:29:59.422Z,2419.2
2022-11-28T09:30:59.609Z,2419.2
2022-11-28T09:31:59.977Z,2419.2
2022-11-28T09:33:00.147Z,2419.2
2022-11-28T09:34:00.295Z,2677.76
2022-11-28T09:35:00.461Z,2677.76
2022-11-28T09:36:00.616Z,2677.76
2022-11-28T09:37:03.671Z,2677.76
2022-11-28T09:38:05.378Z,2677.76
2022-11-28T09:39:05.532Z,2959.36
2022-11-28T09:40:12.946Z,2959.36
2022-11-28T09:41:14.493Z,3018.24
2022-11-28T09:42:14.647Z,3018.24
2022-11-28T09:43:14.800Z,3018.24
2022-11-28T09:44:14.954Z,3018.24
2022-11-28T09:45:15.113Z,3018.24
2022-11-28T09:46:15.350Z,3018.24
2022-11-28T09:47:15.645Z,3258.88
2022-11-28T09:48:15.808Z,3258.88
2022-11-28T09:49:15.951Z,3258.88
2022-11-28T09:50:16.118Z,3258.88
2022-11-28T09:51:16.271Z,3258.88
2022-11-28T09:52:16.472Z,3599.36
2022-11-28T09:53:17.016Z,3599.36
2022-11-28T09:54:17.173Z,3599.36
2022-11-28T09:55:17.326Z,3599.36
2022-11-28T09:56:17.479Z,3599.36
2022-11-28T09:57:17.637Z,3957.76
2022-11-28T09:58:17.801Z,3957.76
2022-11-28T09:59:17.953Z,3957.76
2022-11-28T10:00:18.152Z,4359.68
2022-11-28T10:01:18.518Z,4359.68
2022-11-28T10:02:18.682Z,4359.68
2022-11-28T10:03:18.884Z,4359.68
2022-11-28T10:04:19.466Z,4359.68
2022-11-28T10:05:20.038Z,4359.68
2022-11-28T10:06:20.199Z,4359.68
2022-11-28T10:07:20.388Z,4359.68
2022-11-28T10:08:20.734Z,4359.68
2022-11-28T10:09:20.934Z,4359.68
2022-11-28T10:10:21.094Z,4618.24
2022-11-28T10:11:21.282Z,4618.24
2022-11-28T10:12:21.436Z,4618.24
2022-11-28T10:13:21.592Z,4618.24
2022-11-28T10:14:21.740Z,4618.24
2022-11-28T10:15:21.893Z,4618.24
2022-11-28T10:16:22.195Z,4618.24
2022-11-28T10:17:22.549Z,4618.24
2022-11-28T10:18:22.716Z,4618.24
2022-11-28T10:19:52.638Z,4618.24
2022-11-28T10:20:55.394Z,4339.2
2022-11-28T10:21:59.223Z,4339.2
2022-11-28T10:22:59.804Z,4339.2
2022-11-28T10:23:59.965Z,4339.2
2022-11-28T10:25:00.129Z,4339.2
2022-11-28T10:26:00.279Z,4339.2
2022-11-28T10:27:00.438Z,4779.52
2022-11-28T10:28:00.589Z,4779.52
2022-11-28T10:29:00.747Z,4779.52
2022-11-28T10:30:00.912Z,5278.72
2022-11-28T10:31:01.106Z,5278.72
2022-11-28T10:32:01.414Z,5278.72
2022-11-28T10:33:01.562Z,5278.72
2022-11-28T10:34:01.711Z,5278.72
2022-11-28T10:35:01.876Z,5836.8
2022-11-28T10:36:02.040Z,5836.8
2022-11-28T10:37:02.189Z,5836.8
2022-11-28T10:38:02.378Z,5836.8
2022-11-28T10:39:03.767Z,5836.8
2022-11-28T10:40:11.506Z,6435.84
2022-11-28T10:41:11.656Z,6435.84
2022-11-28T10:42:11.837Z,6435.84
2022-11-28T10:43:12.006Z,7096.32
2022-11-28T10:44:14.812Z,7096.32
2022-11-28T10:45:21.891Z,7915.52
2022-11-28T10:46:22.099Z,7915.52
2022-11-28T10:47:22.491Z,7915.52
2022-11-28T10:48:38.874Z,8816.64
2022-11-28T10:49:41.778Z,8796.16
2022-11-28T10:50:42.769Z,8796.16
2022-11-28T10:51:42.916Z,9738.24
2022-11-28T10:52:43.066Z,9738.24
2022-11-28T10:53:43.216Z,9738.24
2022-11-28T10:54:43.380Z,8698.88
2022-11-28T10:55:43.532Z,8698.88
2022-11-28T10:56:43.702Z,8698.88
2022-11-28T10:57:44.000Z,8698.88
2022-11-28T10:58:44.153Z,8698.88
2022-11-28T10:59:44.706Z,8698.88
2022-11-28T11:00:45.992Z,8698.88
2022-11-28T11:01:50.080Z,8698.88
2022-11-28T11:02:50.918Z,8837.12
2022-11-28T11:03:51.104Z,8857.6
2022-11-28T11:04:51.381Z,8857.6
2022-11-28T11:05:51.762Z,8857.6
2022-11-28T11:07:07.362Z,8857.6
2022-11-28T11:08:19.703Z,8396.8
2022-11-28T11:09:20.142Z,8396.8
2022-11-28T11:10:20.296Z,8396.8
2022-11-28T11:11:20.452Z,8396.8
2022-11-28T11:12:20.607Z,7956.48
2022-11-28T11:13:20.769Z,7956.48
2022-11-28T11:14:20.934Z,7956.48
2022-11-28T11:15:21.090Z,7956.48
2022-11-28T11:16:21.278Z,7956.48
2022-11-28T11:17:21.672Z,7956.48
2022-11-28T11:18:21.827Z,7956.48
2022-11-28T11:19:21.978Z,7956.48
2022-11-28T11:20:22.143Z,7956.48
2022-11-28T11:21:22.296Z,7956.48
2022-11-28T11:22:22.449Z,7157.76
2022-11-28T11:23:22.607Z,7157.76
2022-11-28T11:24:22.772Z,7157.76
2022-11-28T11:25:22.922Z,7157.76
2022-11-28T11:26:23.072Z,6435.84
2022-11-28T11:27:23.256Z,6435.84
2022-11-28T11:28:23.409Z,6435.84
2022-11-28T11:29:23.566Z,6435.84
2022-11-28T11:30:23.716Z,5775.36
2022-11-28T11:31:23.967Z,5775.36
2022-11-28T11:32:24.443Z,5775.36
2022-11-28T11:33:24.599Z,5775.36
2022-11-28T11:34:24.750Z,5199.36
2022-11-28T11:35:24.904Z,5199.36
2022-11-28T11:36:25.057Z,5199.36
2022-11-28T11:37:25.213Z,5199.36
2022-11-28T11:38:25.363Z,5199.36
2022-11-28T11:39:25.541Z,5199.36
2022-11-28T11:40:25.867Z,5199.36
2022-11-28T11:41:26.052Z,5199.36
2022-11-28T11:42:26.201Z,5199.36
2022-11-28T11:43:26.352Z,5199.36
2022-11-28T11:44:26.498Z,5376
2022-11-28T11:45:26.645Z,5376
2022-11-28T11:46:26.862Z,5376
2022-11-28T11:47:27.357Z,5376
2022-11-28T11:48:27.522Z,5376
2022-11-28T11:49:27.679Z,5376
2022-11-28T11:50:27.828Z,5376
2022-11-28T11:51:27.987Z,5376
2022-11-28T11:52:28.144Z,5376
2022-11-28T11:53:28.294Z,5376
2022-11-28T11:54:28.446Z,5355.52
2022-11-28T11:55:28.593Z,5355.52
2022-11-28T11:56:28.748Z,5355.52
2022-11-28T11:57:33.797Z,5355.52
2022-11-28T11:58:35.204Z,5278.72
2022-11-28T11:59:35.357Z,5278.72
2022-11-28T12:00:35.506Z,5278.72
2022-11-28T12:01:35.663Z,5278.72
2022-11-28T12:02:35.914Z,5278.72
2022-11-28T12:03:36.564Z,5278.72
2022-11-28T12:04:45.575Z,5017.6
2022-11-28T12:06:25.589Z,4899.84
2022-11-28T12:07:25.778Z,4679.68
2022-11-28T12:08:26.096Z,4480
2022-11-28T12:09:26.259Z,4480
2022-11-28T12:10:26.428Z,4480
2022-11-28T12:11:26.602Z,4480
2022-11-28T12:12:26.844Z,3998.72
2022-11-28T12:13:27.047Z,3998.72
2022-11-28T12:14:27.298Z,3998.72
2022-11-28T12:15:27.465Z,4398.08
2022-11-28T12:16:27.742Z,4398.08
2022-11-28T12:17:59.134Z,4398.08
2022-11-28T12:18:59.519Z,4597.76
2022-11-28T12:19:59.669Z,4597.76
2022-11-28T12:20:59.821Z,4597.76
2022-11-28T12:22:00.002Z,4597.76
2022-11-28T12:23:00.163Z,4597.76
2022-11-28T12:24:00.322Z,3957.76
2022-11-28T12:25:00.477Z,3957.76
2022-11-28T12:26:00.650Z,3957.76
2022-11-28T12:27:00.797Z,3957.76
2022-11-28T12:28:00.982Z,3957.76
2022-11-28T12:29:01.159Z,3957.76
2022-11-28T12:30:01.311Z,3558.4
2022-11-28T12:31:01.522Z,3558.4
2022-11-28T12:32:01.841Z,3558.4
2022-11-28T12:33:01.993Z,3558.4
2022-11-28T12:34:02.155Z,3558.4
2022-11-28T12:35:02.309Z,3558.4
2022-11-28T12:36:03.233Z,3558.4
2022-11-28T12:37:03.786Z,3558.4
2022-11-28T12:38:11.986Z,3558.4
2022-11-28T12:39:12.662Z,3317.76
2022-11-28T12:40:12.906Z,3317.76
2022-11-28T12:41:13.065Z,3317.76
2022-11-28T12:42:13.227Z,3317.76
2022-11-28T12:43:13.378Z,3317.76
2022-11-28T12:44:13.537Z,3317.76
2022-11-28T12:45:13.695Z,3317.76
2022-11-28T12:46:13.855Z,3317.76
2022-11-28T12:47:14.188Z,3317.76
2022-11-28T12:48:14.390Z,3317.76
2022-11-28T12:49:14.549Z,3097.6
2022-11-28T12:50:14.722Z,3097.6
2022-11-28T12:51:14.883Z,3097.6
2022-11-28T12:52:15.113Z,3097.6
2022-11-28T12:53:15.276Z,3097.6
2022-11-28T12:54:15.431Z,3097.6
2022-11-28T12:55:15.592Z,3097.6
2022-11-28T12:56:15.752Z,3097.6
2022-11-28T12:57:15.919Z,3097.6
2022-11-28T12:58:16.159Z,3097.6
2022-11-28T12:59:16.319Z,2818.56
2022-11-28T13:00:16.484Z,2818.56
2022-11-28T13:01:16.699Z,2818.56
2022-11-28T13:02:16.950Z,2818.56
2022-11-28T13:03:17.400Z,2818.56
2022-11-28T13:04:17.680Z,2818.56
2022-11-28T13:05:17.835Z,2818.56
2022-11-28T13:06:17.997Z,2818.56
2022-11-28T13:07:18.184Z,2818.56
2022-11-28T13:08:18.468Z,2818.56
2022-11-28T13:09:18.654Z,2897.92
2022-11-28T13:10:18.837Z,2897.92
2022-11-28T13:11:18.998Z,2897.92
2022-11-28T13:12:19.160Z,2897.92
2022-11-28T13:13:19.326Z,2897.92
2022-11-28T13:14:19.481Z,2897.92
2022-11-28T13:15:19.645Z,2897.92
2022-11-28T13:16:25.302Z,2897.92
2022-11-28T13:17:27.892Z,3118.08
2022-11-28T13:18:28.054Z,3118.08
2022-11-28T13:19:28.211Z,3018.24
2022-11-28T13:20:28.362Z,3018.24
2022-11-28T13:21:28.572Z,3018.24
2022-11-28T13:22:28.735Z,3018.24
2022-11-28T13:23:28.946Z,2698.24
2022-11-28T13:24:29.117Z,2698.24
2022-11-28T13:25:29.279Z,2698.24
2022-11-28T13:26:29.451Z,2698.24
2022-11-28T13:27:29.607Z,2698.24
2022-11-28T13:28:29.768Z,2698.24
2022-11-28T13:29:29.930Z,2698.24
2022-11-28T13:30:30.094Z,2698.24
2022-11-28T13:31:30.298Z,2698.24
2022-11-28T13:32:30.688Z,2419.2
2022-11-28T13:33:30.856Z,2419.2
2022-11-28T13:34:31.020Z,2419.2
2022-11-28T13:35:31.180Z,2419.2
2022-11-28T13:39:37.499Z,2039.04
2022-11-28T13:40:37.698Z,2039.04
2022-11-28T13:42:06.230Z,2039.04
2022-11-28T13:44:03.412Z,1978.88
2022-11-28T13:45:03.573Z,1978.88
2022-11-28T13:46:03.853Z,1978.88
2022-11-28T13:47:04.391Z,2019.84
2022-11-28T13:48:04.675Z,2019.84
2022-11-28T13:49:21.081Z,2019.84
2022-11-28T13:50:21.831Z,2059.52
2022-11-28T13:51:25.468Z,2059.52
2022-11-28T13:52:32.990Z,2059.52
2022-11-28T13:53:33.162Z,2059.52
2022-11-28T13:54:33.322Z,2059.52
2022-11-28T13:55:33.684Z,2059.52
2022-11-28T13:56:33.840Z,2039.04
2022-11-28T13:57:33.996Z,2039.04
2022-11-28T13:58:34.163Z,2039.04
2022-11-28T13:59:34.334Z,2039.04
2022-11-28T14:00:34.499Z,2039.04
2022-11-28T14:01:34.708Z,2039.04
2022-11-28T14:02:35.134Z,2039.04
2022-11-28T14:03:36.561Z,1818.88
2022-11-28T14:04:36.934Z,1818.88
2022-11-28T14:05:38.899Z,1818.88
2022-11-28T14:06:39.068Z,1818.88
2022-11-28T14:07:39.272Z,1619.2
2022-11-28T14:08:39.585Z,1619.2
2022-11-28T14:09:39.812Z,1619.2
2022-11-28T14:10:39.972Z,1619.2
2022-11-28T14:11:40.135Z,1619.2
2022-11-28T14:12:40.299Z,1619.2
2022-11-28T14:13:40.475Z,1619.2
2022-11-28T14:14:40.641Z,1619.2
2022-11-28T14:15:40.833Z,1619.2
2022-11-28T14:16:44.267Z,1619.2
2022-11-28T14:17:52.519Z,1519.36
2022-11-28T14:18:57.461Z,1519.36
2022-11-28T14:19:58.827Z,1539.84
2022-11-28T14:20:58.998Z,1539.84
2022-11-28T14:21:59.166Z,1539.84
2022-11-28T14:22:59.328Z,1539.84
2022-11-28T14:23:59.494Z,1539.84
2022-11-28T14:24:59.668Z,1539.84
2022-11-28T14:25:59.883Z,1539.84
2022-11-28T14:27:00.158Z,1539.84
2022-11-28T14:28:00.318Z,1539.84
2022-11-28T14:29:00.495Z,1539.84
2022-11-28T14:30:00.662Z,1539.84
2022-11-28T14:31:00.825Z,1379.84
2022-11-28T14:32:28.282Z,1379.84
2022-11-28T14:33:31.728Z,1299.84
2022-11-28T14:34:31.878Z,1239.68
2022-11-28T14:35:32.035Z,1239.68
2022-11-28T14:36:32.189Z,1239.68
2022-11-28T14:37:32.344Z,1239.68
2022-11-28T14:38:33.109Z,1099.52
2022-11-28T14:39:33.279Z,1099.52
2022-11-28T14:40:33.442Z,1099.52
2022-11-28T14:41:33.603Z,989.44
2022-11-28T14:43:03.863Z,989.44
2022-11-28T14:44:04.018Z,929.92
2022-11-28T14:45:08.316Z,889.6
2022-11-28T14:46:09.038Z,859.52
2022-11-28T14:47:09.468Z,859.52
2022-11-28T14:48:09.664Z,859.52
2022-11-28T14:49:09.831Z,859.52
2022-11-28T14:50:10.002Z,800
2022-11-28T14:51:10.161Z,800
2022-11-28T14:52:31.242Z,800
2022-11-28T14:53:40.983Z,720
2022-11-28T14:54:41.135Z,720
2022-11-28T14:55:41.290Z,720
2022-11-28T14:56:41.448Z,720
2022-11-28T14:57:41.598Z,720
2022-11-28T14:58:41.773Z,720
2022-11-28T14:59:41.987Z,720
2022-11-28T15:00:42.140Z,640
2022-11-28T15:01:42.306Z,640
2022-11-28T15:02:42.685Z,640
2022-11-28T15:03:43.253Z,640
2022-11-28T15:04:43.758Z,569.92
2022-11-28T15:05:44.629Z,569.92
2022-11-28T15:06:44.794Z,569.92
2022-11-28T15:07:45.044Z,569.92
2022-11-28T15:08:45.335Z,509.76
2022-11-28T15:09:45.506Z,509.76
2022-11-28T15:10:45.669Z,509.76
2022-11-28T15:11:45.823Z,449.92
2022-11-28T15:12:45.973Z,449.92
2022-11-28T15:13:46.121Z,449.92
2022-11-28T15:14:46.532Z,400
2022-11-28T15:15:47.374Z,400
2022-11-28T15:16:50.370Z,400
2022-11-28T15:17:51.295Z,360
2022-11-28T15:18:51.535Z,320
2022-11-28T15:19:51.698Z,320
2022-11-28T15:20:51.881Z,280
2022-11-28T15:21:52.089Z,280
2022-11-28T15:22:52.328Z,249.92
2022-11-28T15:23:52.477Z,249.92
2022-11-28T15:24:52.632Z,220
2022-11-28T15:25:52.783Z,220
2022-11-28T15:26:57.140Z,189.92
2022-11-28T15:27:58.322Z,169.92
2022-11-28T15:28:58.473Z,169.92
2022-11-28T15:29:58.624Z,150
2022-11-28T15:30:58.813Z,130
2022-11-28T15:31:59.117Z,130
2022-11-28T15:32:59.282Z,110
2022-11-28T15:33:59.431Z,110
2022-11-28T15:34:59.604Z,98.96
2022-11-28T15:35:59.765Z,98.96
2022-11-28T15:36:59.926Z,110
2022-11-28T15:38:00.101Z,110
2022-11-28T15:39:00.261Z,110
2022-11-28T15:40:00.409Z,130
2022-11-28T15:41:00.561Z,130
2022-11-28T15:42:00.732Z,110
2022-11-28T15:43:00.883Z,86
2022-11-28T15:44:01.034Z,67
2022-11-28T15:45:01.193Z,59
2022-11-28T15:46:01.343Z,45
2022-11-28T15:47:01.531Z,40
2022-11-28T15:48:01.953Z,36
2022-11-28T15:49:02.109Z,32
2022-11-28T15:50:02.355Z,28
2022-11-28T15:51:02.517Z,25
2022-11-28T15:52:02.671Z,25
2022-11-28T15:53:02.821Z,22
2022-11-28T15:54:02.973Z,22
2022-11-28T15:55:03.137Z,19
2022-11-28T15:56:03.289Z,17
2022-11-28T15:57:03.449Z,15
2022-11-28T15:58:03.654Z,13
2022-11-28T15:59:03.803Z,11
2022-11-28T16:00:03.954Z,11
2022-11-28T16:01:04.205Z,9
2022-11-28T16:02:04.483Z,8
2022-11-28T16:03:04.827Z,7
2022-11-28T16:04:04.976Z,6
2022-11-28T16:05:05.139Z,4
2022-11-28T16:06:05.287Z,2
2022-11-28T16:07:05.444Z,1
2022-11-28T16:08:09.144Z,0
2022-11-28T16:09:13.884Z,0
2022-11-28T16:10:14.042Z,0
2022-11-28T16:11:14.197Z,0
2022-11-28T16:12:14.351Z,0
2022-11-28T16:13:14.497Z,0
2022-11-28T16:14:14.657Z,0
2022-11-28T16:15:14.809Z,0
2022-11-28T16:16:15.017Z,0
2022-11-28T16:17:15.347Z,0
2022-11-28T16:18:15.497Z,0
2022-11-28T16:19:15.649Z,0
2022-11-28T16:20:15.805Z,0
2022-11-28T16:21:15.958Z,0
2022-11-28T16:22:16.112Z,0
2022-11-28T16:23:16.267Z,0
2022-11-28T16:24:16.419Z,0
2022-11-28T16:25:16.573Z,0
2022-11-28T16:26:16.724Z,0
2022-11-28T16:27:16.884Z,0
2022-11-28T16:28:17.036Z,0
2022-11-28T16:29:17.188Z,0
2022-11-28T16:30:17.339Z,0
2022-11-28T16:31:18.292Z,0
2022-11-28T16:32:18.587Z,0
2022-11-28T16:33:21.757Z,0
2022-11-28T16:34:22.156Z,0
2022-11-28T16:35:22.317Z,0
2022-11-28T16:36:22.460Z,0
2022-11-28T16:37:22.616Z,0
2022-11-28T16:38:22.831Z,0
2022-11-28T16:39:22.983Z,0
2022-11-28T16:40:23.144Z,0
2022-11-28T16:41:23.298Z,0
2022-11-28T16:42:23.456Z,0
2022-11-28T16:43:23.605Z,0
2022-11-28T16:44:23.763Z,0
2022-11-28T16:45:23.925Z,0
2022-11-28T16:46:24.080Z,0
2022-11-28T16:47:24.237Z,0
2022-11-28T16:48:24.390Z,0
2022-11-28T16:49:24.546Z,0
2022-11-28T16:50:24.693Z,0
2022-11-28T16:51:25.140Z,0
2022-11-28T16:52:25.292Z,0
2022-11-28T16:53:25.492Z,0
2022-11-28T16:54:25.841Z,0
2022-11-28T16:55:25.995Z,0
2022-11-28T16:56:26.160Z,0
2022-11-28T16:57:30.213Z,0
2022-11-28T16:58:33.309Z,0
2022-11-28T16:59:33.460Z,0
2022-11-28T17:00:33.606Z,0
2022-11-28T17:01:33.794Z,0
2022-11-28T17:02:34.058Z,0
2022-11-28T17:03:34.319Z,0
2022-11-28T17:04:34.468Z,0
2022-11-28T17:05:34.620Z,0
2022-11-28T17:06:34.765Z,0
2022-11-28T17:07:34.944Z,0
2022-11-28T17:08:35.189Z,0
2022-11-28T17:09:35.344Z,0
2022-11-28T17:10:35.488Z,0
2022-11-28T17:11:35.639Z,0
2022-11-28T17:12:35.812Z,0
2022-11-28T17:13:35.970Z,0
2022-11-28T17:14:36.130Z,0
2022-11-28T17:15:36.291Z,0
2022-11-28T17:16:36.485Z,0
2022-11-28T17:17:36.794Z,0
2022-11-28T17:18:36.949Z,0
2022-11-28T17:19:37.115Z,0
2022-11-28T17:20:37.268Z,0
2022-11-28T17:21:37.418Z,0
2022-11-28T17:22:40.871Z,0
2022-11-28T17:23:41.656Z,0
2022-11-28T17:24:41.805Z,0
2022-11-28T17:25:41.950Z,0
2022-11-28T17:26:42.102Z,0
2022-11-28T17:27:42.252Z,0
2022-11-28T17:28:42.412Z,0
2022-11-28T17:29:42.900Z,0
2022-11-28T17:30:44.296Z,0
2022-11-28T17:31:44.467Z,0
2022-11-28T17:32:44.829Z,0
2022-11-28T17:33:45.086Z,0
2022-11-28T17:34:45.487Z,0
2022-11-28T17:35:46.661Z,0
2022-11-28T17:36:46.817Z,0
2022-11-28T17:37:46.976Z,0
2022-11-28T17:38:47.137Z,0
2022-11-28T17:39:47.287Z,0
2022-11-28T17:40:47.444Z,0
2022-11-28T17:41:47.601Z,0
2022-11-28T17:42:47.766Z,0
2022-11-28T17:43:47.917Z,0
2022-11-28T17:44:48.068Z,0
2022-11-28T17:45:48.239Z,0
2022-11-28T17:46:48.504Z,0
2022-11-28T17:47:48.684Z,0
2022-11-28T17:48:48.835Z,0
2022-11-28T17:49:49.288Z,0
2022-11-28T17:50:50.091Z,0
2022-11-28T17:51:50.240Z,0
2022-11-28T17:52:50.384Z,0
2022-11-28T17:53:50.532Z,0
2022-11-28T17:54:50.688Z,0
2022-11-28T17:55:50.837Z,0
2022-11-28T17:56:50.984Z,0
2022-11-28T17:57:51.138Z,0
2022-11-28T17:58:51.286Z,0
2022-11-28T17:59:51.436Z,0
2022-11-28T18:00:53.976Z,0
2022-11-28T18:02:01.174Z,0
2022-11-28T18:03:01.443Z,0
2022-11-28T18:04:01.596Z,0
2022-11-28T18:05:01.744Z,0
2022-11-28T18:06:01.904Z,0
2022-11-28T18:07:02.062Z,0
2022-11-28T18:08:02.212Z,0
2022-11-28T18:09:04.897Z,0
2022-11-28T18:10:12.622Z,0
2022-11-28T18:11:12.771Z,0
2022-11-28T18:12:12.915Z,0
2022-11-28T18:13:13.063Z,0
2022-11-28T18:14:13.212Z,0
2022-11-28T18:15:13.361Z,0
2022-11-28T18:16:13.568Z,0
2022-11-28T18:17:13.851Z,0
2022-11-28T18:18:14.009Z,0
2022-11-28T18:19:14.183Z,0
2022-11-28T18:20:14.341Z,0
2022-11-28T18:21:14.493Z,0
2022-11-28T18:22:14.644Z,0
2022-11-28T18:23:14.790Z,0
2022-11-28T18:24:14.943Z,0
2022-11-28T18:25:15.094Z,0
2022-11-28T18:26:15.243Z,0
2022-11-28T18:27:15.387Z,0
2022-11-28T18:28:18.773Z,0
2022-11-28T18:29:19.473Z,0
2022-11-28T18:30:19.626Z,0
2022-11-28T18:31:19.812Z,0
2022-11-28T18:32:20.195Z,0
2022-11-28T18:33:20.349Z,0
2022-11-28T18:34:20.498Z,0
2022-11-28T18:35:20.652Z,0
2022-11-28T18:36:20.803Z,0
2022-11-28T18:37:20.966Z,0
2022-11-28T18:38:21.141Z,0
2022-11-28T18:39:21.289Z,0
2022-11-28T18:40:21.448Z,0
2022-11-28T18:41:21.608Z,0
2022-11-28T18:42:21.793Z,0
2022-11-28T18:43:21.957Z,0
2022-11-28T18:44:22.137Z,0
2022-11-28T18:45:22.292Z,0
2022-11-28T18:46:22.453Z,0
2022-11-28T18:47:22.605Z,0
2022-11-28T18:48:22.761Z,0
2022-11-28T18:49:22.909Z,0
2022-11-28T18:50:23.058Z,0
2022-11-28T18:51:23.207Z,0
2022-11-28T18:52:23.359Z,0
2022-11-28T18:53:23.510Z,0
2022-11-28T18:54:23.671Z,0
2022-11-28T18:55:23.837Z,0
2022-11-28T18:56:23.993Z,0
2022-11-28T18:57:24.146Z,0
2022-11-28T18:58:24.297Z,0
2022-11-28T18:59:24.447Z,0
2022-11-28T19:00:24.598Z,0
2022-11-28T19:01:24.802Z,0
2022-11-28T19:02:25.280Z,0
2022-11-28T19:03:25.629Z,0
2022-11-28T19:04:25.779Z,0
2022-11-28T19:05:25.935Z,0
2022-11-28T19:06:26.089Z,0
2022-11-28T19:07:26.290Z,0
2022-11-28T19:08:26.554Z,0
2022-11-28T19:09:26.703Z,0
2022-11-28T19:10:26.850Z,0
2022-11-28T19:11:27.003Z,0
2022-11-28T19:12:27.153Z,0
2022-11-28T19:13:27.301Z,0
2022-11-28T19:14:27.468Z,0
2022-11-28T19:15:27.623Z,0
2022-11-28T19:16:27.868Z,0
2022-11-28T19:17:28.266Z,0
2022-11-28T19:18:28.433Z,0
2022-11-28T19:19:28.599Z,0
2022-11-28T19:20:28.767Z,0
2022-11-28T19:21:28.926Z,0
2022-11-28T19:22:29.117Z,0
2022-11-28T19:23:29.301Z,0
2022-11-28T19:24:29.466Z,0
2022-11-28T19:25:29.627Z,0
2022-11-28T19:26:29.775Z,0
2022-11-28T19:27:29.932Z,0
2022-11-28T19:28:30.082Z,0
2022-11-28T19:29:30.233Z,0
2022-11-28T19:30:30.380Z,0
2022-11-28T19:31:30.579Z,0
2022-11-28T19:32:30.828Z,0
2022-11-28T19:33:30.969Z,0
2022-11-28T19:34:31.120Z,0
2022-11-28T19:35:31.269Z,0
2022-11-28T19:36:31.417Z,0
2022-11-28T19:37:31.569Z,0
2022-11-28T19:38:31.725Z,0
2022-11-28T19:39:31.870Z,0
2022-11-28T19:40:32.029Z,0
2022-11-28T19:41:32.193Z,0
2022-11-28T19:42:32.474Z,0
2022-11-28T19:43:32.626Z,0
2022-11-28T19:44:32.786Z,0
2022-11-28T19:45:32.987Z,0
2022-11-28T19:46:35.628Z,0
2022-11-28T19:47:36.239Z,0
2022-11-28T19:48:36.402Z,0
2022-11-28T19:49:36.565Z,0
2022-11-28T19:50:36.715Z,0
2022-11-28T19:51:36.865Z,0
2022-11-28T19:52:37.039Z,0
2022-11-28T19:53:37.198Z,0
2022-11-28T19:54:37.371Z,0
2022-11-28T19:55:37.674Z,0
2022-11-28T19:56:37.820Z,0
2022-11-28T19:57:37.969Z,0
2022-11-28T19:58:38.137Z,0
2022-11-28T19:59:38.288Z,0
2022-11-28T20:00:38.436Z,0
2022-11-28T20:01:38.624Z,0
2022-11-28T20:02:39.208Z,0
2022-11-28T20:03:39.469Z,0
2022-11-28T20:04:39.618Z,0
2022-11-28T20:05:39.770Z,0
2022-11-28T20:06:39.920Z,0
2022-11-28T20:07:40.129Z,0
2022-11-28T20:08:40.486Z,0
2022-11-28T20:09:40.646Z,0
2022-11-28T20:10:40.839Z,0
2022-11-28T20:11:40.992Z,0
2022-11-28T20:12:41.147Z,0
2022-11-28T20:13:41.308Z,0
2022-11-28T20:14:41.468Z,0
2022-11-28T20:15:41.619Z,0
2022-11-28T20:16:41.809Z,0
2022-11-28T20:17:42.238Z,0
2022-11-28T20:18:42.393Z,0
2022-11-28T20:19:42.857Z,0
2022-11-28T20:20:43.998Z,0
2022-11-28T20:21:44.151Z,0
2022-11-28T20:22:44.314Z,0
2022-11-28T20:23:44.465Z,0
2022-11-28T20:24:44.625Z,0
2022-11-28T20:25:44.780Z,0
2022-11-28T20:26:44.985Z,0
2022-11-28T20:27:45.163Z,0
2022-11-28T20:28:45.339Z,0
2022-11-28T20:29:45.795Z,0
2022-11-28T20:30:46.844Z,0
2022-11-28T20:31:47.063Z,0
2022-11-28T20:32:47.568Z,0
2022-11-28T20:33:47.722Z,0
2022-11-28T20:34:47.873Z,0
2022-11-28T20:35:48.023Z,0
2022-11-28T20:36:48.177Z,0
2022-11-28T20:37:48.353Z,0
2022-11-28T20:38:48.502Z,0
2022-11-28T20:39:48.654Z,0
2022-11-28T20:40:48.808Z,0
2022-11-28T20:41:48.962Z,0
2022-11-28T20:42:49.118Z,0
2022-11-28T20:43:49.270Z,0
2022-11-28T20:44:49.420Z,0
2022-11-28T20:45:49.627Z,0
2022-11-28T20:46:49.910Z,0
2022-11-28T20:47:50.265Z,0
2022-11-28T20:48:50.436Z,0
2022-11-28T20:49:50.596Z,0
2022-11-28T20:50:50.759Z,0
2022-11-28T20:51:50.910Z,0
2022-11-28T20:52:51.074Z,0
2022-11-28T20:53:51.224Z,0
2022-11-28T20:54:51.377Z,0
2022-11-28T20:55:51.531Z,0
2022-11-28T20:57:20.062Z,0
2022-11-28T20:58:22.782Z,0
2022-11-28T20:59:22.940Z,0
2022-11-28T21:00:26.491Z,0
2022-11-28T21:01:27.182Z,0
2022-11-28T21:02:27.642Z,0
2022-11-28T21:03:27.935Z,0
2022-11-28T21:04:28.097Z,0
2022-11-28T21:05:28.246Z,0
2022-11-28T21:06:28.397Z,0
2022-11-28T21:07:28.601Z,0
2022-11-28T21:08:28.860Z,0
2022-11-28T21:09:29.010Z,0
2022-11-28T21:10:29.167Z,0
2022-11-28T21:11:55.477Z,0
2022-11-28T21:12:59.639Z,0
2022-11-28T21:13:59.793Z,0
2022-11-28T21:14:59.943Z,0
2022-11-28T21:16:00.220Z,0
2022-11-28T21:17:00.372Z,0
2022-11-28T21:18:00.521Z,0
2022-11-28T21:19:00.683Z,0
2022-11-28T21:20:00.836Z,0
2022-11-28T21:21:00.994Z,0
2022-11-28T21:22:01.147Z,0
2022-11-28T21:23:01.303Z,0
2022-11-28T21:24:01.456Z,0
2022-11-28T21:25:01.632Z,0
2022-11-28T21:26:01.790Z,0
2022-11-28T21:27:01.941Z,0
2022-11-28T21:28:02.095Z,0
2022-11-28T21:29:02.247Z,0
2022-11-28T21:30:02.416Z,0
2022-11-28T21:31:02.580Z,0
2022-11-28T21:32:02.781Z,0
2022-11-28T21:33:03.189Z,0
2022-11-28T21:34:03.342Z,0
2022-11-28T21:35:04.631Z,0
2022-11-28T21:36:05.058Z,0
2022-11-28T21:37:05.213Z,0
2022-11-28T21:38:05.367Z,0
2022-11-28T21:39:05.517Z,0
2022-11-28T21:40:05.669Z,0
2022-11-28T21:41:05.828Z,0
2022-11-28T21:42:05.985Z,0
2022-11-28T21:43:06.137Z,0
2022-11-28T21:44:06.304Z,0
2022-11-28T21:45:06.460Z,0
2022-11-28T21:46:06.657Z,0
2022-11-28T21:47:07.042Z,0
2022-11-28T21:48:07.195Z,0
2022-11-28T21:49:07.345Z,0
2022-11-28T21:50:07.502Z,0